<?xml version="1.0" encoding="UTF-8" standalone="no" ?>
<gpx xmlns="http://www.topografix.com/GPX/1/1" xmlns:xsi="http://www.w3.org/2001/XMLSchema-instance" xsi:schemaLocation="http://www.topografix.com/GPX/1/1 http://www.topografix.com/GPX/1/1/gpx.xsd" version="1.1" creator="VisuGPX - https://www.visugpx.com">
  <metadata>
    <name>Argentina</name>
    <desc><![CDATA[Downloaded from eMap Software Version 2.75]]></desc>
  </metadata>
  <trk>
    <name><![CDATA[Argentina_40]]></name>
    <extensions>
      <line xmlns="http://www.topografix.com/GPX/gpx_style/0/2">
        <color>ff0000</color>
        <opacity>0.78</opacity>
        <width>0.6000</width>
      </line>
    </extensions>
    <trkseg>
      <trkpt lat="-27.63761" lon="-62.30497">
        <ele>139.528442</ele>
        <time>2005-12-12T20:50:35Z</time>
      </trkpt>
      <trkpt lat="-27.63755" lon="-62.30445">
        <ele>139.528442</ele>
        <time>2005-12-12T20:50:37Z</time>
      </trkpt>
      <trkpt lat="-27.63675" lon="-62.29958">
        <ele>139.528442</ele>
        <time>2005-12-12T20:50:54Z</time>
      </trkpt>
      <trkpt lat="-27.63656" lon="-62.29591">
        <ele>139.528442</ele>
        <time>2005-12-12T20:51:09Z</time>
      </trkpt>
      <trkpt lat="-27.63566" lon="-62.28896">
        <ele>139.528442</ele>
        <time>2005-12-12T20:51:35Z</time>
      </trkpt>
      <trkpt lat="-27.63482" lon="-62.28227">
        <ele>139.528442</ele>
        <time>2005-12-12T20:52:00Z</time>
      </trkpt>
      <trkpt lat="-27.63366" lon="-62.27343">
        <ele>139.528442</ele>
        <time>2005-12-12T20:52:33Z</time>
      </trkpt>
      <trkpt lat="-27.63278" lon="-62.26647">
        <ele>139.528442</ele>
        <time>2005-12-12T20:52:59Z</time>
      </trkpt>
      <trkpt lat="-27.6321" lon="-62.26085">
        <ele>139.528442</ele>
        <time>2005-12-12T20:53:20Z</time>
      </trkpt>
      <trkpt lat="-27.63064" lon="-62.24931">
        <ele>141.931763</ele>
        <time>2005-12-12T20:54:03Z</time>
      </trkpt>
      <trkpt lat="-27.62924" lon="-62.23882">
        <ele>145.296387</ele>
        <time>2005-12-12T20:54:42Z</time>
      </trkpt>
      <trkpt lat="-27.62806" lon="-62.23023">
        <ele>147.218994</ele>
        <time>2005-12-12T20:55:14Z</time>
      </trkpt>
      <trkpt lat="-27.62671" lon="-62.22004">
        <ele>150.583618</ele>
        <time>2005-12-12T20:55:52Z</time>
      </trkpt>
      <trkpt lat="-27.62555" lon="-62.21111">
        <ele>152.986938</ele>
        <time>2005-12-12T20:56:25Z</time>
      </trkpt>
      <trkpt lat="-27.62431" lon="-62.20144">
        <ele>157.793579</ele>
        <time>2005-12-12T20:57:01Z</time>
      </trkpt>
      <trkpt lat="-27.62308" lon="-62.19184">
        <ele>160.67749</ele>
        <time>2005-12-12T20:57:37Z</time>
      </trkpt>
      <trkpt lat="-27.62216" lon="-62.1841">
        <ele>163.080811</ele>
        <time>2005-12-12T20:58:06Z</time>
      </trkpt>
      <trkpt lat="-27.62212" lon="-62.18382">
        <ele>163.080811</ele>
        <time>2005-12-12T20:58:07Z</time>
      </trkpt>
      <trkpt lat="-27.62296" lon="-62.17796">
        <ele>167.887329</ele>
        <time>2005-12-12T20:58:29Z</time>
      </trkpt>
      <trkpt lat="-27.62384" lon="-62.17045">
        <ele>168.848755</ele>
        <time>2005-12-12T20:58:57Z</time>
      </trkpt>
      <trkpt lat="-27.62401" lon="-62.16828">
        <ele>168.848755</ele>
        <time>2005-12-12T20:59:05Z</time>
      </trkpt>
      <trkpt lat="-27.62332" lon="-62.16326">
        <ele>168.848755</ele>
        <time>2005-12-12T20:59:24Z</time>
      </trkpt>
    </trkseg>
  </trk>
</gpx>